Berea, Iowa
Current Conditions -  °F | °C
As of 7:35 PM on Wednesday 26 Nov 2014 (Local Time) from KAIO Reporting Station
Overcast Overcast  
Wind Chill:   Ceiling: 1200
Heat Index: 23°   Visibility: 10mi
Dew Point: 19°   Wind: 20mph
Humidity: 86%   Direction: 350°N
Pressure: 30.33"   Gusts: 29mph
Location:  41.4595°N, 94.8127°W
Report Text: KAIO 270135Z AUTO 35017G25KT 10SM OVC012 M05/M07 A3033 RMK AO2
Loading
Personal Weather Stations






























Interactive Weather Map New forecast layout! Learn more

10-Day Weather Forecast

Advertisements
Track Severe Weather on mobile